createdAt,value
2019-01-24T00:00:39.080Z,92.52
2019-01-24T00:03:10.228Z,92.61
2019-01-24T00:05:40.024Z,92.55
2019-01-24T00:08:09.520Z,92.71
2019-01-24T00:10:39.006Z,92.86
2019-01-24T00:13:08.479Z,92.55
2019-01-24T00:15:37.968Z,92.54
2019-01-24T00:18:07.456Z,92.44
2019-01-24T00:20:36.941Z,92.46
2019-01-24T00:23:06.426Z,92.41
2019-01-24T00:25:35.917Z,92.42
2019-01-24T00:28:05.400Z,92.38
2019-01-24T00:30:34.908Z,92.55
2019-01-24T00:33:04.758Z,92.53
2019-01-24T00:35:34.259Z,92.46
2019-01-24T00:38:04.070Z,92.61
2019-01-24T00:40:33.541Z,92.58
2019-01-24T00:43:03.285Z,92.59
2019-01-24T00:45:32.772Z,92.45
2019-01-24T00:48:02.245Z,92.33
2019-01-24T00:50:31.743Z,92.58
2019-01-24T00:53:01.483Z,92.61
2019-01-24T00:55:30.957Z,92.71
2019-01-24T00:58:00.445Z,92.85
2019-01-24T01:00:30.116Z,93.17
2019-01-24T01:02:59.600Z,93.15
2019-01-24T01:05:29.229Z,93.14
2019-01-24T01:07:58.703Z,93.43
2019-01-24T01:10:28.691Z,93.53
2019-01-24T01:12:58.167Z,93.64
2019-01-24T01:15:27.638Z,93.49
2019-01-24T01:17:57.120Z,93.11
2019-01-24T01:20:26.603Z,93.02
2019-01-24T01:22:56.086Z,93.04
2019-01-24T01:25:25.621Z,92.87
2019-01-24T01:27:55.093Z,92.45
2019-01-24T01:30:24.836Z,92.32
2019-01-24T01:32:54.383Z,92.38
2019-01-24T01:35:23.918Z,92.17
2019-01-24T01:37:53.468Z,92.13
2019-01-24T01:40:22.958Z,92.42
2019-01-24T01:42:52.774Z,92.43
2019-01-24T01:45:22.517Z,92.54
2019-01-24T01:47:53.177Z,92.48
2019-01-24T01:50:24.298Z,92.30
2019-01-24T01:52:53.762Z,92.19
2019-01-24T01:55:23.220Z,91.97
2019-01-24T01:57:52.699Z,92.06
2019-01-24T02:00:24.015Z,92.45
2019-01-24T02:02:53.475Z,92.71
2019-01-24T02:05:23.022Z,93.28
2019-01-24T02:07:54.155Z,93.67
2019-01-24T02:10:24.987Z,93.87
2019-01-24T02:12:56.106Z,93.82
2019-01-24T02:15:25.592Z,93.52
2019-01-24T02:17:55.407Z,93.43
2019-01-24T02:20:24.961Z,93.49
2019-01-24T02:22:54.787Z,94.15
2019-01-24T02:25:24.731Z,94.02
2019-01-24T02:27:54.197Z,93.91
2019-01-24T02:30:26.013Z,94.18
2019-01-24T02:32:55.471Z,94.62
2019-01-24T02:35:25.018Z,94.86
2019-01-24T02:37:54.512Z,95.22
2019-01-24T02:40:23.987Z,95.42
2019-01-24T02:42:53.440Z,95.54
2019-01-24T02:45:24.266Z,95.72
2019-01-24T02:47:53.743Z,95.73
2019-01-24T02:50:23.855Z,96.08
2019-01-24T02:52:53.608Z,96.02
2019-01-24T02:55:23.072Z,95.93
2019-01-24T02:57:52.539Z,96.05
2019-01-24T03:00:23.566Z,96.02
2019-01-24T03:02:53.048Z,95.83
2019-01-24T03:05:23.699Z,95.30
2019-01-24T03:07:53.150Z,95.23
2019-01-24T03:10:22.621Z,95.06
2019-01-24T03:12:52.159Z,94.67
2019-01-24T03:15:22.946Z,94.55
2019-01-24T03:17:52.623Z,94.45
2019-01-24T03:20:22.152Z,94.17
2019-01-24T03:22:51.969Z,93.46
2019-01-24T03:25:21.440Z,93.24
2019-01-24T03:27:50.900Z,93.13
2019-01-24T03:30:21.935Z,93.48
2019-01-24T03:32:51.493Z,93.47
2019-01-24T03:35:23.685Z,93.52
2019-01-24T03:37:53.139Z,93.79
2019-01-24T03:40:22.626Z,93.76
2019-01-24T03:42:52.388Z,93.49
2019-01-24T03:45:21.933Z,93.41
2019-01-24T03:47:51.412Z,93.37
2019-01-24T03:50:21.736Z,93.06
2019-01-24T03:52:51.584Z,92.92
2019-01-24T03:55:21.755Z,93.03
2019-01-24T03:57:51.215Z,93.28
2019-01-24T04:00:22.448Z,93.17
2019-01-24T04:02:52.157Z,93.67
2019-01-24T04:05:21.827Z,93.73
2019-01-24T04:07:51.666Z,93.97
2019-01-24T04:10:22.096Z,93.67
2019-01-24T04:12:51.917Z,93.86
2019-01-24T04:15:25.328Z,94.08
2019-01-24T04:17:54.881Z,94.26
2019-01-24T04:20:24.455Z,94.79
2019-01-24T04:22:53.916Z,94.63
2019-01-24T04:25:23.745Z,94.39
2019-01-24T04:27:53.217Z,94.09
2019-01-24T04:30:23.775Z,94.08
2019-01-24T04:32:53.413Z,94.31
2019-01-24T04:35:22.883Z,94.29
2019-01-24T04:37:52.353Z,94.12
2019-01-24T04:40:22.078Z,93.80
2019-01-24T04:42:51.621Z,93.40
2019-01-24T04:45:21.114Z,93.09
2019-01-24T04:47:50.931Z,92.84
2019-01-24T04:50:20.742Z,92.64
2019-01-24T04:52:50.567Z,92.49
2019-01-24T04:55:20.207Z,92.63
2019-01-24T04:57:50.029Z,92.50
2019-01-24T05:00:22.066Z,92.24
2019-01-24T05:02:51.535Z,92.38
2019-01-24T05:05:27.536Z,92.50
2019-01-24T05:07:52.257Z,92.44
2019-01-24T05:10:21.761Z,92.29
2019-01-24T05:12:51.242Z,92.28
2019-01-24T05:15:20.703Z,92.56
2019-01-24T05:17:50.191Z,92.69
2019-01-24T05:20:19.751Z,92.45
2019-01-24T05:22:49.546Z,92.43
2019-01-24T05:25:19.311Z,92.51
2019-01-24T05:27:48.794Z,92.56
2019-01-24T05:30:24.085Z,92.40
2019-01-24T05:32:55.355Z,92.42
2019-01-24T05:35:25.838Z,92.30
2019-01-24T05:37:55.843Z,92.57
2019-01-24T05:40:25.302Z,92.47
2019-01-24T05:42:54.889Z,92.33
2019-01-24T05:45:24.331Z,92.51
2019-01-24T05:47:53.866Z,92.47
2019-01-24T05:50:24.566Z,92.47
2019-01-24T05:52:54.103Z,92.58
2019-01-24T05:55:23.570Z,92.46
2019-01-24T05:57:53.044Z,97.28
2019-01-24T06:00:26.929Z,94.87
2019-01-24T06:02:56.407Z,94.90
2019-01-24T06:05:27.503Z,94.47
2019-01-24T06:07:56.978Z,91.36
2019-01-24T06:10:26.551Z,90.79
2019-01-24T06:12:56.043Z,91.12
2019-01-24T06:15:25.856Z,90.99
2019-01-24T06:17:55.332Z,92.48
2019-01-24T06:20:25.113Z,88.94
2019-01-24T06:22:54.852Z,88.18
2019-01-24T06:25:24.602Z,87.71
2019-01-24T06:27:54.358Z,87.91
2019-01-24T06:30:24.178Z,88.43
2019-01-24T06:32:53.681Z,88.79
2019-01-24T06:35:23.145Z,89.08
2019-01-24T06:37:52.691Z,89.49
2019-01-24T06:40:22.152Z,89.64
2019-01-24T06:42:51.973Z,90.02
2019-01-24T06:45:22.888Z,90.11
2019-01-24T06:47:52.354Z,90.57
2019-01-24T06:50:21.989Z,90.75
2019-01-24T06:52:51.453Z,90.86
2019-01-24T06:55:26.658Z,90.75
2019-01-24T06:57:56.474Z,90.97
2019-01-24T07:00:26.291Z,90.95
2019-01-24T07:02:55.846Z,90.64
2019-01-24T07:05:25.310Z,90.67
2019-01-24T07:07:54.788Z,90.97
2019-01-24T07:10:24.823Z,90.83
2019-01-24T07:12:54.578Z,90.99
2019-01-24T07:15:24.209Z,91.02
2019-01-24T07:17:55.371Z,91.01
2019-01-24T07:20:24.834Z,90.80
2019-01-24T07:22:54.322Z,90.68
2019-01-24T07:25:25.930Z,90.76
2019-01-24T07:27:55.406Z,90.33
2019-01-24T07:30:24.885Z,90.25
2019-01-24T07:32:54.390Z,90.31
2019-01-24T07:35:23.859Z,89.92
2019-01-24T07:37:53.699Z,89.62
2019-01-24T07:40:23.179Z,89.30
2019-01-24T07:42:53.030Z,89.08
2019-01-24T07:45:28.038Z,89.11
2019-01-24T07:47:57.880Z,88.85
2019-01-24T07:50:27.383Z,88.33
2019-01-24T07:52:57.222Z,88.47
2019-01-24T07:55:26.802Z,88.42
2019-01-24T07:57:56.359Z,88.33
2019-01-24T08:00:28.135Z,88.39
2019-01-24T08:02:57.982Z,88.38
2019-01-24T08:05:29.298Z,88.32
2019-01-24T08:07:59.132Z,88.26
2019-01-24T08:10:28.736Z,88.03
2019-01-24T08:12:58.222Z,87.64
2019-01-24T08:15:29.201Z,87.36
2019-01-24T08:17:59.104Z,87.18
2019-01-24T08:20:29.021Z,87.00
2019-01-24T08:22:58.858Z,86.56
2019-01-24T08:25:29.256Z,86.43
2019-01-24T08:27:58.727Z,86.42
2019-01-24T08:30:30.658Z,86.43
2019-01-24T08:33:00.133Z,86.39
2019-01-24T08:35:29.694Z,86.06
2019-01-24T08:37:59.353Z,85.76
2019-01-24T08:40:28.898Z,86.27
2019-01-24T08:42:58.375Z,86.61
2019-01-24T08:45:27.857Z,85.96
2019-01-24T08:47:57.321Z,84.82
2019-01-24T08:50:27.433Z,84.54
2019-01-24T08:52:56.939Z,84.48
2019-01-24T08:55:31.207Z,84.74
2019-01-24T08:58:00.921Z,83.65
2019-01-24T09:00:31.160Z,83.34
2019-01-24T09:03:00.649Z,83.31
2019-01-24T09:05:30.119Z,82.25
2019-01-24T09:07:59.718Z,81.99
2019-01-24T09:10:32.459Z,81.29
2019-01-24T09:13:02.015Z,80.08
2019-01-24T09:15:32.456Z,80.13
2019-01-24T09:18:01.890Z,80.02
2019-01-24T09:20:31.357Z,78.81
2019-01-24T09:23:00.846Z,78.74
2019-01-24T09:25:30.359Z,78.87
2019-01-24T09:28:00.112Z,79.61
2019-01-24T09:30:30.457Z,79.59
2019-01-24T09:32:59.933Z,79.38
2019-01-24T09:35:29.394Z,77.72
2019-01-24T09:37:58.869Z,78.21
2019-01-24T09:40:28.353Z,78.50
2019-01-24T09:42:58.417Z,78.66
2019-01-24T09:45:29.230Z,80.11
2019-01-24T09:48:00.480Z,78.43
2019-01-24T09:50:30.282Z,77.40
2019-01-24T09:52:59.770Z,77.10
2019-01-24T09:55:29.227Z,76.17
2019-01-24T09:57:58.714Z,76.00
2019-01-24T10:00:32.969Z,75.36
2019-01-24T10:03:04.244Z,75.43
2019-01-24T10:05:33.989Z,74.95
2019-01-24T10:08:04.307Z,75.60
2019-01-24T10:10:33.769Z,75.62
2019-01-24T10:13:03.537Z,75.20
2019-01-24T10:15:32.995Z,74.74
2019-01-24T10:18:02.829Z,74.27
2019-01-24T10:20:32.650Z,73.66
2019-01-24T10:23:02.454Z,73.37
2019-01-24T10:25:34.464Z,72.60
2019-01-24T10:28:03.942Z,72.58
2019-01-24T10:30:33.884Z,73.12
2019-01-24T10:33:03.381Z,71.37
2019-01-24T10:35:32.889Z,71.43
2019-01-24T10:38:03.404Z,72.02
2019-01-24T10:40:33.376Z,72.08
2019-01-24T10:43:03.023Z,71.04
2019-01-24T10:45:32.823Z,70.48
2019-01-24T10:48:02.321Z,70.95
2019-01-24T10:50:31.783Z,71.42
2019-01-24T10:53:02.462Z,71.50
2019-01-24T10:55:32.276Z,71.51
2019-01-24T10:58:03.094Z,72.07
2019-01-24T11:00:34.982Z,71.38
2019-01-24T11:03:07.152Z,71.82
2019-01-24T11:05:36.618Z,71.82
2019-01-24T11:08:06.270Z,71.65
2019-01-24T11:10:35.723Z,69.97
2019-01-24T11:13:05.310Z,69.52
2019-01-24T11:15:35.575Z,68.51
2019-01-24T11:18:05.671Z,69.32
2019-01-24T11:20:35.146Z,68.91
2019-01-24T11:23:05.152Z,70.70
2019-01-24T11:25:34.628Z,70.51
2019-01-24T11:28:04.165Z,69.61
2019-01-24T11:30:34.096Z,69.41
2019-01-24T11:33:04.271Z,68.64
2019-01-24T11:35:36.297Z,68.63
2019-01-24T11:38:07.147Z,70.61
2019-01-24T11:40:36.858Z,71.54
2019-01-24T11:43:07.463Z,72.03
2019-01-24T11:45:39.288Z,72.48
2019-01-24T11:48:08.767Z,72.42
2019-01-24T11:50:38.532Z,71.46
2019-01-24T11:53:07.999Z,71.48
2019-01-24T11:55:37.724Z,71.69
2019-01-24T11:58:07.655Z,72.48
2019-01-24T12:00:43.129Z,72.84
2019-01-24T12:03:12.591Z,73.59
2019-01-24T12:05:42.060Z,72.15
2019-01-24T12:08:11.523Z,72.48
2019-01-24T12:10:40.994Z,72.61
2019-01-24T12:13:10.458Z,72.71
2019-01-24T12:15:39.942Z,71.88
2019-01-24T12:18:09.416Z,72.72
2019-01-24T12:20:38.901Z,71.67
2019-01-24T12:23:08.372Z,72.53
2019-01-24T12:25:37.845Z,71.57
2019-01-24T12:28:07.388Z,71.91
2019-01-24T12:30:37.384Z,70.99
2019-01-24T12:33:06.909Z,70.84
2019-01-24T12:35:36.444Z,71.34
2019-01-24T12:38:06.049Z,71.86
2019-01-24T12:40:35.574Z,70.54
2019-01-24T12:43:05.121Z,71.06
2019-01-24T12:45:36.033Z,71.06
2019-01-24T12:48:06.299Z,71.22
2019-01-24T12:50:35.793Z,71.32
2019-01-24T12:53:05.705Z,71.50
2019-01-24T12:55:35.263Z,70.22
2019-01-24T12:58:05.060Z,70.03
2019-01-24T13:00:36.506Z,70.59
2019-01-24T13:03:05.966Z,70.07
2019-01-24T13:05:35.454Z,70.67
2019-01-24T13:08:05.192Z,70.21
2019-01-24T13:10:34.658Z,69.93
2019-01-24T13:13:04.393Z,71.01
2019-01-24T13:15:34.012Z,71.02
2019-01-24T13:18:03.835Z,71.53
2019-01-24T13:20:33.636Z,71.73
2019-01-24T13:23:03.097Z,72.05
2019-01-24T13:25:33.517Z,72.11
2019-01-24T13:28:03.239Z,72.08
2019-01-24T13:30:35.829Z,73.45
2019-01-24T13:33:06.038Z,74.10
2019-01-24T13:35:35.518Z,74.37
2019-01-24T13:38:05.376Z,74.24
2019-01-24T13:40:34.865Z,74.49
2019-01-24T13:43:05.173Z,73.05
2019-01-24T13:45:36.086Z,73.25
2019-01-24T13:48:05.930Z,74.02
2019-01-24T13:50:35.686Z,74.87
2019-01-24T13:53:05.314Z,75.53
2019-01-24T13:55:34.850Z,75.27
2019-01-24T13:58:04.774Z,74.66
2019-01-24T14:00:35.824Z,74.25
2019-01-24T14:03:08.455Z,74.42
2019-01-24T14:05:37.937Z,74.88
2019-01-24T14:08:07.756Z,74.96
2019-01-24T14:10:37.490Z,74.61
2019-01-24T14:13:07.050Z,73.96
2019-01-24T14:15:36.550Z,74.20
2019-01-24T14:18:06.292Z,75.19
2019-01-24T14:20:35.742Z,75.87
2019-01-24T14:23:05.204Z,75.16
2019-01-24T14:25:35.023Z,75.16
2019-01-24T14:28:04.896Z,75.76
2019-01-24T14:30:34.847Z,75.75
2019-01-24T14:33:04.488Z,75.51
2019-01-24T14:35:34.725Z,74.97
2019-01-24T14:38:07.351Z,75.10
2019-01-24T14:40:36.896Z,75.13
2019-01-24T14:43:06.422Z,75.59
2019-01-24T14:45:35.909Z,75.84
2019-01-24T14:48:05.644Z,75.55
2019-01-24T14:50:35.204Z,76.82
2019-01-24T14:53:05.219Z,77.12
2019-01-24T14:55:34.732Z,76.59
2019-01-24T14:58:04.523Z,77.06
2019-01-24T15:00:42.944Z,76.75
2019-01-24T15:03:12.418Z,77.16
2019-01-24T15:05:41.898Z,77.49
2019-01-24T15:08:11.684Z,76.92
2019-01-24T15:10:41.186Z,76.67
2019-01-24T15:13:10.711Z,77.32
2019-01-24T15:15:40.187Z,77.86
2019-01-24T15:18:10.869Z,78.48
2019-01-24T15:20:40.409Z,78.26
2019-01-24T15:23:09.879Z,78.39
2019-01-24T15:25:39.363Z,78.46
2019-01-24T15:28:08.819Z,78.55
2019-01-24T15:30:38.479Z,78.43
2019-01-24T15:33:09.123Z,79.06
2019-01-24T15:35:38.602Z,79.51
2019-01-24T15:38:09.228Z,79.55
2019-01-24T15:40:38.784Z,79.29
2019-01-24T15:43:08.263Z,79.52
2019-01-24T15:45:37.767Z,78.78
2019-01-24T15:48:07.297Z,78.34
2019-01-24T15:50:36.802Z,79.12
2019-01-24T15:53:06.590Z,79.87
2019-01-24T15:55:36.066Z,80.02
2019-01-24T15:58:05.888Z,79.75
2019-01-24T16:00:35.727Z,79.79
2019-01-24T16:03:05.428Z,79.42
2019-01-24T16:05:34.894Z,79.78
2019-01-24T16:08:04.728Z,80.19
2019-01-24T16:10:34.208Z,80.59
2019-01-24T16:13:03.668Z,80.59
2019-01-24T16:15:35.325Z,80.20
2019-01-24T16:18:07.211Z,80.06
2019-01-24T16:20:36.773Z,80.08
2019-01-24T16:23:06.231Z,80.89
2019-01-24T16:25:56.640Z,80.96
2019-01-24T16:28:26.115Z,80.78
2019-01-24T16:30:56.711Z,80.54
2019-01-24T16:33:26.563Z,80.93
2019-01-24T16:35:56.029Z,80.64
2019-01-24T16:38:25.490Z,80.34
2019-01-24T16:40:54.976Z,80.07
2019-01-24T16:43:25.352Z,79.83
2019-01-24T16:45:54.813Z,80.37
2019-01-24T16:48:24.284Z,80.48
2019-01-24T16:50:53.774Z,81.50
2019-01-24T16:53:23.238Z,81.03
2019-01-24T16:55:52.885Z,80.99
2019-01-24T16:58:23.334Z,80.97
2019-01-24T17:00:53.290Z,80.62
2019-01-24T17:03:22.749Z,80.52
2019-01-24T17:05:52.317Z,80.32
2019-01-24T17:08:21.803Z,80.58
2019-01-24T17:10:51.563Z,80.74
2019-01-24T17:13:21.119Z,80.67
2019-01-24T17:15:50.609Z,80.61
2019-01-24T17:18:20.065Z,79.91
2019-01-24T17:20:49.517Z,80.19
2019-01-24T17:23:19.295Z,80.04
2019-01-24T17:25:48.808Z,80.54
2019-01-24T17:28:18.289Z,80.93
2019-01-24T17:30:47.949Z,80.67
2019-01-24T17:33:17.535Z,80.46
2019-01-24T17:35:47.001Z,80.82
2019-01-24T17:38:23.401Z,80.63
2019-01-24T17:40:47.704Z,80.71
2019-01-24T17:43:17.216Z,80.56
2019-01-24T17:45:46.747Z,81.66
2019-01-24T17:48:16.466Z,81.30
2019-01-24T17:50:46.019Z,82.13
2019-01-24T17:53:15.501Z,81.26
2019-01-24T17:55:45.926Z,81.20
2019-01-24T17:58:15.757Z,81.55
2019-01-24T18:00:46.932Z,81.91
2019-01-24T18:03:16.712Z,82.34
2019-01-24T18:05:46.549Z,82.16
2019-01-24T18:08:16.060Z,81.46
2019-01-24T18:10:45.571Z,82.03
2019-01-24T18:13:15.120Z,81.78
2019-01-24T18:15:44.860Z,81.72
2019-01-24T18:18:14.416Z,81.50
2019-01-24T18:20:43.954Z,81.55
2019-01-24T18:23:13.522Z,81.65
2019-01-24T18:25:43.261Z,82.01
2019-01-24T18:28:12.714Z,82.44
2019-01-24T18:30:42.547Z,82.05
2019-01-24T18:33:12.386Z,81.83
2019-01-24T18:35:42.135Z,81.84
2019-01-24T18:38:11.732Z,81.20
2019-01-24T18:40:41.572Z,81.73
2019-01-24T18:43:14.545Z,82.14
2019-01-24T18:45:52.833Z,82.46
2019-01-24T18:48:22.467Z,82.77
2019-01-24T18:50:51.955Z,82.11
2019-01-24T18:53:21.435Z,83.14
2019-01-24T18:55:51.208Z,82.98
2019-01-24T18:58:20.689Z,90.89
2019-01-24T19:00:50.428Z,86.69
2019-01-24T19:03:19.921Z,82.01
2019-01-24T19:05:49.402Z,76.10
2019-01-24T19:08:20.552Z,75.26
2019-01-24T19:10:50.033Z,76.59
2019-01-24T19:13:19.788Z,77.72
2019-01-24T19:15:49.327Z,78.98
2019-01-24T19:18:19.096Z,80.33
2019-01-24T19:20:48.643Z,80.85
2019-01-24T19:23:18.124Z,80.79
2019-01-24T19:25:47.598Z,81.30
2019-01-24T19:28:17.074Z,81.74
2019-01-24T19:30:46.696Z,82.16
2019-01-24T19:33:16.362Z,82.17
2019-01-24T19:35:45.818Z,82.71
2019-01-24T19:38:15.658Z,82.22
2019-01-24T19:40:45.471Z,81.76
2019-01-24T19:43:14.942Z,82.20
2019-01-24T19:45:44.428Z,82.32
2019-01-24T19:48:13.999Z,82.10
2019-01-24T19:50:43.455Z,82.78
2019-01-24T19:53:14.036Z,83.15
2019-01-24T19:55:43.513Z,82.90
2019-01-24T19:58:12.980Z,83.18
2019-01-24T20:00:42.448Z,83.96
2019-01-24T20:03:12.197Z,83.90
2019-01-24T20:05:41.968Z,83.27
2019-01-24T20:08:11.780Z,83.19
2019-01-24T20:10:41.304Z,83.42
2019-01-24T20:13:11.058Z,83.90
2019-01-24T20:15:40.521Z,83.95
2019-01-24T20:18:10.066Z,83.95
2019-01-24T20:20:39.529Z,83.84
2019-01-24T20:23:09.007Z,83.38
2019-01-24T20:25:38.621Z,82.84
2019-01-24T20:28:08.457Z,83.26
2019-01-24T20:30:38.286Z,83.53
2019-01-24T20:33:07.790Z,84.05
2019-01-24T20:35:45.528Z,84.13
2019-01-24T20:38:14.990Z,84.12
2019-01-24T20:40:44.451Z,84.22
2019-01-24T20:43:15.943Z,84.09
2019-01-24T20:45:45.414Z,84.39
2019-01-24T20:48:14.873Z,84.44
2019-01-24T20:50:44.332Z,84.59
2019-01-24T20:53:14.202Z,84.51
2019-01-24T20:55:44.001Z,84.88
2019-01-24T20:58:13.778Z,85.01
2019-01-24T21:00:43.407Z,85.23
2019-01-24T21:03:12.880Z,85.43
2019-01-24T21:05:42.407Z,85.79
2019-01-24T21:08:11.903Z,85.37
2019-01-24T21:10:41.354Z,86.03
2019-01-24T21:13:10.829Z,85.88
2019-01-24T21:15:40.308Z,86.23
2019-01-24T21:18:09.788Z,86.20
2019-01-24T21:20:39.242Z,85.87
2019-01-24T21:23:08.812Z,85.65
2019-01-24T21:25:38.276Z,86.16
2019-01-24T21:28:07.753Z,86.02
2019-01-24T21:30:38.291Z,86.43
2019-01-24T21:33:08.617Z,86.35
2019-01-24T21:35:38.078Z,86.28
2019-01-24T21:38:07.775Z,86.29
2019-01-24T21:40:37.262Z,87.02
2019-01-24T21:43:06.741Z,87.01
2019-01-24T21:45:37.527Z,87.14
2019-01-24T21:48:07.851Z,87.15
2019-01-24T21:50:37.634Z,87.29
2019-01-24T21:53:07.250Z,87.43
2019-01-24T21:55:36.774Z,87.54
2019-01-24T21:58:06.800Z,87.91
2019-01-24T22:00:36.543Z,87.75
2019-01-24T22:03:06.295Z,87.71
2019-01-24T22:05:35.928Z,88.15
2019-01-24T22:08:07.267Z,88.27
2019-01-24T22:10:36.736Z,88.76
2019-01-24T22:13:06.442Z,88.33
2019-01-24T22:15:35.918Z,88.36
2019-01-24T22:18:08.963Z,87.83
2019-01-24T22:20:38.440Z,88.55
2019-01-24T22:23:07.947Z,89.09
2019-01-24T22:25:37.409Z,89.46
2019-01-24T22:28:06.948Z,89.88
2019-01-24T22:30:46.008Z,89.85
2019-01-24T22:33:16.060Z,89.37
2019-01-24T22:35:45.531Z,89.47
2019-01-24T22:38:15.270Z,89.45
2019-01-24T22:40:44.758Z,89.81
2019-01-24T22:43:14.533Z,89.50
2019-01-24T22:45:44.004Z,89.25
2019-01-24T22:48:13.471Z,89.50
2019-01-24T22:50:42.974Z,89.29
2019-01-24T22:53:12.432Z,89.58
2019-01-24T22:55:41.952Z,90.05
2019-01-24T22:58:11.417Z,89.58
2019-01-24T23:00:51.536Z,89.42
2019-01-24T23:03:36.698Z,89.66
2019-01-24T23:06:06.226Z,89.89
2019-01-24T23:08:35.695Z,90.03
2019-01-24T23:11:06.336Z,89.95
2019-01-24T23:13:36.159Z,90.25
2019-01-24T23:16:05.894Z,90.44
2019-01-24T23:18:35.423Z,90.53
2019-01-24T23:21:05.792Z,90.26
2019-01-24T23:23:35.507Z,90.07
2019-01-24T23:26:05.245Z,89.96
2019-01-24T23:28:34.722Z,89.90
2019-01-24T23:31:04.457Z,90.12
2019-01-24T23:33:33.959Z,90.27
2019-01-24T23:36:03.524Z,90.74
2019-01-24T23:38:32.988Z,90.58
2019-01-24T23:41:02.476Z,90.50
2019-01-24T23:43:31.992Z,90.76
2019-01-24T23:46:01.689Z,90.25
2019-01-24T23:48:31.208Z,90.57
2019-01-24T23:51:00.714Z,90.53
2019-01-24T23:53:30.234Z,90.99
2019-01-24T23:56:00.016Z,90.95
2019-01-24T23:58:29.484Z,91.14
